Time;durP1;ratioP1;P1;durP2;ratioP2;P2;SDS_P1;SDS_P2;PMS_P1;PMS_P2;Temp;Humidity;BMP_temperature;BMP_pressure;BME280_temperature;BME280_humidity;BME280_pressure;Samples;Min_cycle;Max_cycle;Signal;HPM_P1;HPM_P2
2024/04/08 00:00:04;;;;;;;;;34.75;11.25;;;;;;;;10430242;28;44106;-61
2024/04/08 00:05:07;;;;;;;;;34.75;14.75;;;;;;;;10434119;28;42978;-60
2024/04/08 00:10:11;;;;;;;;;43.00;13.75;;;;;;;;10434986;28;44536;-60
2024/04/08 00:15:15;;;;;;;;;44.50;14.75;;;;;;;;10440257;28;44185;-60
2024/04/08 00:20:21;;;;;;;;;42.25;13.25;;;;;;;;10438539;28;43068;-63
2024/04/08 00:25:24;;;;;;;;;43.00;14.25;;;;;;;;10431221;28;48581;-63
2024/04/08 00:30:27;;;;;;;;;39.75;13.00;;;;;;;;10443273;28;43003;-62
2024/04/08 00:35:30;;;;;;;;;29.75;16.00;;;;;;;;10440445;28;43012;-61
2024/04/08 00:40:37;;;;;;;;;32.50;12.25;;;;;;;;10442588;28;42990;-61
2024/04/08 00:45:42;;;;;;;;;35.25;12.00;;;;;;;;10435894;28;43676;-62
2024/04/08 00:50:49;;;;;;;;;32.00;11.25;;;;;;;;10445055;28;43754;-62
2024/04/08 00:55:53;;;;;;;;;39.25;13.00;;;;;;;;10436047;28;48410;-63
2024/04/08 01:00:57;;;;;;;;;43.00;11.00;;;;;;;;10448752;28;49504;-61
2024/04/08 01:06:01;;;;;;;;;35.75;12.00;;;;;;;;10447058;28;42962;-61
2024/04/08 01:11:07;;;;;;;;;29.00;12.75;;;;;;;;10452432;28;43259;-61
2024/04/08 01:16:10;;;;;;;;;34.75;14.50;;;;;;;;10440001;28;43856;-61
2024/04/08 01:21:13;;;;;;;;;49.00;25.50;;;;;;;;10420971;28;44131;-60
2024/04/08 01:26:18;;;;;;;;;54.50;33.00;;;;;;;;10433352;28;42917;-58
2024/04/08 01:31:21;;;;;;;;;56.25;32.75;;;;;;;;10433504;28;43063;-59
2024/04/08 01:36:25;;;;;;;;;60.25;34.50;;;;;;;;10433254;28;43605;-61
2024/04/08 01:41:29;;;;;;;;;54.75;31.50;;;;;;;;10442189;28;43375;-61
2024/04/08 01:46:34;;;;;;;;;52.75;31.00;;;;;;;;10458673;28;44369;-61
2024/04/08 01:51:37;;;;;;;;;53.25;28.50;;;;;;;;10457959;28;43684;-61
2024/04/08 01:56:41;;;;;;;;;48.00;31.00;;;;;;;;10458757;28;43101;-62
2024/04/08 02:01:44;;;;;;;;;51.50;28.75;;;;;;;;10458262;28;43763;-59
2024/04/08 02:06:48;;;;;;;;;48.75;27.50;;;;;;;;10448480;28;43304;-63
2024/04/08 02:11:52;;;;;;;;;54.50;31.00;;;;;;;;10421979;28;43546;-61
2024/04/08 02:16:55;;;;;;;;;51.75;31.00;;;;;;;;10420837;28;43816;-59
2024/04/08 02:21:58;;;;;;;;;55.50;30.00;;;;;;;;10417582;28;43317;-60
2024/04/08 02:27:02;;;;;;;;;54.00;30.75;;;;;;;;10428409;28;43019;-61
2024/04/08 02:32:05;;;;;;;;;62.25;35.25;;;;;;;;10441015;28;43190;-60
2024/04/08 02:37:09;;;;;;;;;56.25;34.75;;;;;;;;10458636;28;44455;-60
2024/04/08 02:42:12;;;;;;;;;55.00;31.00;;;;;;;;10454291;28;43686;-58
2024/04/08 02:47:15;;;;;;;;;50.50;30.50;;;;;;;;10443580;28;43126;-57
2024/04/08 02:52:19;;;;;;;;;58.75;31.25;;;;;;;;10434654;28;42996;-60
2024/04/08 02:57:23;;;;;;;;;53.50;30.50;;;;;;;;10461004;28;43743;-61
2024/04/08 03:02:27;;;;;;;;;55.75;34.75;;;;;;;;10462271;28;43084;-60
2024/04/08 03:07:31;;;;;;;;;59.75;30.50;;;;;;;;10467014;28;42956;-61
2024/04/08 03:12:34;;;;;;;;;52.25;31.25;;;;;;;;10467807;28;43728;-60
2024/04/08 03:17:37;;;;;;;;;51.50;30.25;;;;;;;;10454502;27;43779;-60
2024/04/08 03:22:41;;;;;;;;;52.50;29.75;;;;;;;;10450645;27;44558;-60
2024/04/08 03:27:45;;;;;;;;;57.75;29.00;;;;;;;;10436873;28;43007;-60
2024/04/08 03:32:50;;;;;;;;;51.00;30.00;;;;;;;;10435536;28;43232;-60
2024/04/08 03:37:54;;;;;;;;;49.75;29.00;;;;;;;;10481134;28;49246;-60
2024/04/08 03:42:58;;;;;;;;;51.00;24.00;;;;;;;;10463626;28;44253;-61
2024/04/08 03:48:02;;;;;;;;;46.50;27.25;;;;;;;;10452387;28;44503;-60
2024/04/08 03:53:05;;;;;;;;;48.00;24.00;;;;;;;;10449804;28;43046;-59
2024/04/08 03:58:10;;;;;;;;;54.50;29.00;;;;;;;;10471167;28;43185;-59
2024/04/08 04:03:14;;;;;;;;;54.50;27.25;;;;;;;;10466857;28;43775;-59
2024/04/08 04:08:17;;;;;;;;;53.50;29.25;;;;;;;;10469791;28;43026;-60
2024/04/08 04:13:21;;;;;;;;;49.00;25.50;;;;;;;;10472306;28;43041;-62
2024/04/08 04:18:25;;;;;;;;;48.00;27.00;;;;;;;;10481169;28;43364;-59
2024/04/08 04:23:28;;;;;;;;;49.50;28.00;;;;;;;;10484905;28;43209;-59
2024/04/08 04:28:32;;;;;;;;;53.25;28.00;;;;;;;;10473807;28;44509;-59
2024/04/08 04:33:35;;;;;;;;;54.00;25.75;;;;;;;;10494527;28;43079;-59
2024/04/08 04:38:39;;;;;;;;;46.50;27.00;;;;;;;;10473296;28;43022;-59
2024/04/08 04:43:43;;;;;;;;;50.00;20.75;;;;;;;;10493329;28;44878;-62
2024/04/08 04:48:47;;;;;;;;;47.25;23.50;;;;;;;;10492474;28;43075;-62
2024/04/08 04:53:50;;;;;;;;;47.25;24.25;;;;;;;;10469542;28;43318;-62
2024/04/08 04:58:54;;;;;;;;;43.25;19.75;;;;;;;;10468438;28;43956;-62
2024/04/08 05:03:58;;;;;;;;;46.25;23.50;;;;;;;;10469033;28;44806;-62
2024/04/08 05:09:02;;;;;;;;;37.25;20.00;;;;;;;;10451089;28;42993;-62
2024/04/08 05:14:06;;;;;;;;;35.50;20.00;;;;;;;;10434482;28;43045;-64
2024/04/08 05:19:09;;;;;;;;;42.25;22.75;;;;;;;;10458353;28;43643;-63
2024/04/08 05:24:12;;;;;;;;;49.00;22.00;;;;;;;;10453367;28;42942;-63
2024/04/08 05:29:16;;;;;;;;;43.00;19.00;;;;;;;;10458081;28;43576;-63
2024/04/08 05:34:19;;;;;;;;;35.50;18.75;;;;;;;;10435059;28;43839;-63
2024/04/08 05:39:22;;;;;;;;;49.75;22.50;;;;;;;;10478423;28;43061;-63
2024/04/08 05:44:26;;;;;;;;;43.75;21.75;;;;;;;;10432553;28;43125;-63
2024/04/08 05:49:30;;;;;;;;;44.00;22.25;;;;;;;;10432315;28;43634;-63
2024/04/08 05:54:34;;;;;;;;;50.00;24.00;;;;;;;;10430803;28;43594;-63
2024/04/08 05:59:38;;;;;;;;;36.75;21.25;;;;;;;;10420519;28;43877;-62
2024/04/08 06:04:42;;;;;;;;;39.25;20.50;;;;;;;;10427764;28;43789;-62
2024/04/08 06:09:46;;;;;;;;;41.75;23.75;;;;;;;;10425389;28;43027;-62
2024/04/08 06:14:49;;;;;;;;;40.00;20.75;;;;;;;;10430675;28;43081;-63
2024/04/08 06:19:52;;;;;;;;;44.00;24.00;;;;;;;;10432100;28;43626;-63
2024/04/08 06:24:57;;;;;;;;;38.75;20.25;;;;;;;;10427786;28;44326;-63
2024/04/08 06:30:00;;;;;;;;;44.00;21.75;;;;;;;;10430984;28;43549;-63
2024/04/08 06:35:04;;;;;;;;;36.50;19.00;;;;;;;;10429871;28;43060;-63
2024/04/08 06:40:09;;;;;;;;;45.50;22.00;;;;;;;;10428874;28;43353;-63
2024/04/08 06:45:13;;;;;;;;;43.00;22.00;;;;;;;;10429179;28;43410;-62
2024/04/08 06:50:17;;;;;;;;;49.25;20.75;;;;;;;;10431592;28;48800;-63
2024/04/08 06:55:22;;;;;;;;;49.75;27.75;;;;;;;;10421731;28;43634;-63
2024/04/08 07:00:26;;;;;;;;;50.50;28.75;;;;;;;;10414081;28;44824;-62
2024/04/08 07:05:29;;;;;;;;;47.00;24.25;;;;;;;;10431561;28;42996;-63
2024/04/08 07:10:35;;;;;;;;;48.75;29.50;;;;;;;;10431912;28;43783;-63
2024/04/08 07:15:38;;;;;;;;;42.75;21.50;;;;;;;;10422593;28;43336;-63
2024/04/08 07:20:42;;;;;;;;;49.00;23.50;;;;;;;;10430126;28;43619;-63
2024/04/08 07:25:45;;;;;;;;;47.50;26.25;;;;;;;;10420727;28;43014;-63
2024/04/08 07:30:50;;;;;;;;;44.50;23.75;;;;;;;;10411532;28;43316;-63
2024/04/08 07:35:53;;;;;;;;;47.25;26.50;;;;;;;;10428434;28;43334;-63
2024/04/08 07:40:58;;;;;;;;;42.50;19.75;;;;;;;;10429906;28;43001;-63
2024/04/08 07:46:01;;;;;;;;;43.00;21.00;;;;;;;;10414710;28;43036;-63
2024/04/08 07:51:07;;;;;;;;;44.75;21.00;;;;;;;;10387595;28;43020;-63
2024/04/08 07:56:11;;;;;;;;;46.75;22.50;;;;;;;;10388959;28;42977;-63
2024/04/08 08:01:14;;;;;;;;;37.25;21.25;;;;;;;;10387836;28;43162;-62
2024/04/08 08:06:18;;;;;;;;;48.50;23.00;;;;;;;;10387455;28;49747;-63
2024/04/08 08:11:22;;;;;;;;;42.75;21.50;;;;;;;;10396708;28;43183;-62
2024/04/08 08:16:28;;;;;;;;;44.00;22.75;;;;;;;;10429950;28;43010;-62
2024/04/08 08:21:32;;;;;;;;;41.50;23.50;;;;;;;;10429915;28;43274;-62
2024/04/08 08:26:35;;;;;;;;;41.50;21.50;;;;;;;;10393717;28;42980;-62
2024/04/08 08:31:39;;;;;;;;;37.25;22.00;;;;;;;;10387733;28;43332;-62
2024/04/08 08:36:42;;;;;;;;;40.25;20.75;;;;;;;;10387435;28;43052;-62
2024/04/08 08:41:51;;;;;;;;;40.75;21.75;;;;;;;;10393236;28;43209;-63
2024/04/08 08:46:54;;;;;;;;;37.50;21.25;;;;;;;;10453497;28;43028;-63
2024/04/08 08:52:02;;;;;;;;;37.75;19.50;;;;;;;;10453065;28;43026;-63
2024/04/08 08:57:07;;;;;;;;;42.50;21.75;;;;;;;;10452746;28;42999;-62
2024/04/08 09:02:14;;;;;;;;;38.25;21.50;;;;;;;;10459397;28;43012;-63
2024/04/08 09:07:17;;;;;;;;;40.25;23.25;;;;;;;;10442972;28;45215;-63
2024/04/08 09:12:21;;;;;;;;;38.00;19.50;;;;;;;;10460541;28;43054;-63
2024/04/08 09:17:25;;;;;;;;;37.00;17.75;;;;;;;;10477623;27;45394;-62
2024/04/08 09:22:29;;;;;;;;;43.25;20.50;;;;;;;;10500769;27;43022;-62
2024/04/08 09:27:34;;;;;;;;;31.75;18.75;;;;;;;;10458714;28;42931;-63
2024/04/08 09:32:39;;;;;;;;;41.50;26.50;;;;;;;;10467434;28;43617;-62
2024/04/08 09:37:42;;;;;;;;;41.75;22.75;;;;;;;;10469780;28;43025;-62
2024/04/08 09:42:46;;;;;;;;;43.50;22.25;;;;;;;;10497158;27;43276;-63
2024/04/08 09:47:51;;;;;;;;;38.75;19.00;;;;;;;;10496565;28;43075;-64
2024/04/08 09:52:55;;;;;;;;;39.75;21.50;;;;;;;;10458495;28;43674;-62
2024/04/08 09:58:00;;;;;;;;;36.75;19.75;;;;;;;;10487449;27;43621;-64
2024/04/08 10:03:10;;;;;;;;;38.00;17.00;;;;;;;;10498943;28;43055;-60
2024/04/08 10:08:14;;;;;;;;;40.25;19.50;;;;;;;;10499107;27;43594;-62
2024/04/08 10:13:17;;;;;;;;;38.00;17.50;;;;;;;;10476017;28;42980;-66
2024/04/08 10:18:20;;;;;;;;;38.50;18.75;;;;;;;;10481532;28;44278;-64
2024/04/08 10:23:28;;;;;;;;;35.00;18.50;;;;;;;;10490979;28;43787;-63
2024/04/08 10:28:32;;;;;;;;;42.25;19.75;;;;;;;;10456798;28;43036;-62
2024/04/08 10:33:36;;;;;;;;;33.25;17.50;;;;;;;;10457895;28;43238;-61
2024/04/08 10:38:40;;;;;;;;;37.50;18.00;;;;;;;;10467454;28;43014;-61
2024/04/08 10:43:45;;;;;;;;;40.50;18.00;;;;;;;;10474097;28;42964;-62
2024/04/08 10:48:48;;;;;;;;;36.25;19.75;;;;;;;;10456488;28;43037;-63
2024/04/08 10:53:53;;;;;;;;;43.75;20.75;;;;;;;;10455212;28;43211;-61
2024/04/08 10:58:57;;;;;;;;;39.50;21.25;;;;;;;;10457179;28;43055;-63
2024/04/08 11:04:00;;;;;;;;;40.50;23.25;;;;;;;;10456043;28;43271;-64
2024/04/08 11:09:05;;;;;;;;;38.75;21.75;;;;;;;;10454515;28;43943;-64
2024/04/08 11:14:09;;;;;;;;;44.50;20.50;;;;;;;;10457877;28;44608;-62
2024/04/08 11:19:13;;;;;;;;;45.75;23.25;;;;;;;;10456975;28;42938;-63
2024/04/08 11:24:17;;;;;;;;;42.50;23.50;;;;;;;;10436421;28;45498;-61
2024/04/08 11:29:21;;;;;;;;;34.50;20.75;;;;;;;;10455840;28;43010;-64
2024/04/08 11:34:25;;;;;;;;;47.50;20.50;;;;;;;;10433248;28;44984;-64
2024/04/08 11:39:28;;;;;;;;;40.75;20.00;;;;;;;;10458220;28;42973;-63
2024/04/08 11:44:33;;;;;;;;;47.00;23.50;;;;;;;;10460669;28;42911;-64
2024/04/08 11:49:37;;;;;;;;;45.25;18.25;;;;;;;;10439119;28;43098;-59
2024/04/08 11:54:41;;;;;;;;;47.00;19.50;;;;;;;;10461052;27;43353;-63
2024/04/08 11:59:44;;;;;;;;;46.00;25.50;;;;;;;;10419834;28;42948;-59
2024/04/08 12:04:48;;;;;;;;;41.50;19.25;;;;;;;;10457151;28;43621;-62
2024/04/08 12:09:51;;;;;;;;;49.75;23.25;;;;;;;;10460345;28;44166;-64
2024/04/08 12:14:54;;;;;;;;;39.25;14.50;;;;;;;;10441538;28;44475;-62
2024/04/08 12:19:58;;;;;;;;;38.75;18.75;;;;;;;;10448649;28;43290;-61
2024/04/08 12:25:02;;;;;;;;;40.00;17.00;;;;;;;;10458126;28;42965;-61
2024/04/08 12:30:06;;;;;;;;;44.50;17.00;;;;;;;;10454566;28;43243;-63
2024/04/08 12:35:10;;;;;;;;;42.00;19.75;;;;;;;;10434240;28;44671;-61
2024/04/08 12:40:14;;;;;;;;;45.00;19.75;;;;;;;;10449822;27;43006;-62
2024/04/08 12:45:17;;;;;;;;;45.00;16.75;;;;;;;;10455521;28;48822;-64
2024/04/08 12:50:21;;;;;;;;;41.75;15.75;;;;;;;;10440065;28;43196;-61
2024/04/08 12:55:25;;;;;;;;;42.75;18.00;;;;;;;;10459665;28;43842;-60
2024/04/08 13:00:28;;;;;;;;;39.00;14.75;;;;;;;;10413361;28;43011;-63
2024/04/08 13:05:32;;;;;;;;;72.50;31.25;;;;;;;;10410400;28;43610;-62
2024/04/08 13:10:35;;;;;;;;;39.25;18.25;;;;;;;;10449851;28;43034;-61
2024/04/08 13:15:38;;;;;;;;;40.25;15.00;;;;;;;;10413580;28;43266;-62
2024/04/08 13:20:41;;;;;;;;;39.00;17.00;;;;;;;;10433947;28;43923;-62
2024/04/08 13:25:44;;;;;;;;;38.25;17.00;;;;;;;;10450116;28;42952;-62
2024/04/08 13:30:49;;;;;;;;;41.25;19.00;;;;;;;;10428907;28;44195;-62
2024/04/08 13:35:53;;;;;;;;;35.75;16.00;;;;;;;;10439280;28;43736;-62
2024/04/08 13:40:56;;;;;;;;;40.25;18.00;;;;;;;;10450456;28;43834;-62
2024/04/08 13:46:01;;;;;;;;;46.50;19.75;;;;;;;;10397154;28;43259;-62
2024/04/08 13:51:05;;;;;;;;;39.50;18.75;;;;;;;;10394410;28;43318;-62
2024/04/08 13:56:09;;;;;;;;;44.25;17.25;;;;;;;;10393180;28;49835;-62
2024/04/08 14:01:13;;;;;;;;;43.75;18.75;;;;;;;;10391923;28;43002;-62
2024/04/08 14:06:16;;;;;;;;;43.00;22.75;;;;;;;;10392700;28;43061;-62
2024/04/08 14:11:20;;;;;;;;;42.00;21.00;;;;;;;;10393199;28;43134;-62
2024/04/08 14:16:26;;;;;;;;;44.25;17.25;;;;;;;;10397493;28;42998;-62
2024/04/08 14:21:29;;;;;;;;;30.75;14.75;;;;;;;;10400145;28;43450;-62
2024/04/08 14:26:33;;;;;;;;;38.50;18.75;;;;;;;;10391357;28;43908;-62
2024/04/08 14:31:36;;;;;;;;;43.00;15.50;;;;;;;;10388240;28;43641;-61
2024/04/08 14:36:40;;;;;;;;;36.25;13.50;;;;;;;;10391236;28;44574;-62
2024/04/08 14:41:43;;;;;;;;;33.50;13.50;;;;;;;;10391646;28;43578;-61
2024/04/08 14:46:51;;;;;;;;;32.75;14.00;;;;;;;;10455436;27;43322;-61
2024/04/08 14:51:54;;;;;;;;;42.50;16.00;;;;;;;;10440375;28;43327;-62
2024/04/08 14:56:58;;;;;;;;;42.75;19.25;;;;;;;;10455977;28;43025;-62
2024/04/08 15:02:02;;;;;;;;;39.50;14.75;;;;;;;;10440066;28;43651;-61
2024/04/08 15:07:05;;;;;;;;;35.50;18.50;;;;;;;;10455536;27;43150;-61
2024/04/08 15:12:08;;;;;;;;;34.25;17.50;;;;;;;;10461433;28;44116;-61
2024/04/08 15:17:12;;;;;;;;;35.25;18.50;;;;;;;;10452711;28;42960;-61
2024/04/08 15:22:16;;;;;;;;;36.75;16.25;;;;;;;;10454275;28;43001;-61
2024/04/08 15:27:20;;;;;;;;;37.00;14.75;;;;;;;;10436229;28;43173;-61
2024/04/08 15:32:24;;;;;;;;;32.00;16.25;;;;;;;;10455564;27;42912;-62
2024/04/08 15:37:28;;;;;;;;;35.50;19.75;;;;;;;;10453396;28;42965;-60
2024/04/08 15:42:31;;;;;;;;;35.00;15.75;;;;;;;;10447179;28;42931;-61
2024/04/08 15:47:34;;;;;;;;;43.50;17.00;;;;;;;;10461866;28;43673;-61
2024/04/08 15:52:39;;;;;;;;;38.25;16.50;;;;;;;;10457372;28;43147;-62
2024/04/08 15:57:42;;;;;;;;;40.25;22.75;;;;;;;;10452835;28;42840;-62
2024/04/08 16:02:46;;;;;;;;;41.00;20.25;;;;;;;;10446252;28;48760;-61
2024/04/08 16:07:50;;;;;;;;;39.50;20.00;;;;;;;;10470043;28;43395;-61
2024/04/08 16:12:53;;;;;;;;;43.25;23.75;;;;;;;;10456064;28;43185;-61
2024/04/08 16:17:57;;;;;;;;;38.25;21.75;;;;;;;;10453075;28;43506;-61
2024/04/08 16:23:01;;;;;;;;;43.50;20.50;;;;;;;;10451700;28;43650;-61
2024/04/08 16:28:05;;;;;;;;;40.00;23.25;;;;;;;;10448704;28;43367;-61
2024/04/08 16:33:09;;;;;;;;;46.75;25.00;;;;;;;;10451251;28;42967;-61
2024/04/08 16:38:13;;;;;;;;;45.00;24.00;;;;;;;;10466670;28;43178;-61
2024/04/08 16:43:16;;;;;;;;;42.50;22.75;;;;;;;;10458335;28;42985;-61
2024/04/08 16:48:21;;;;;;;;;43.50;23.00;;;;;;;;10452269;28;44139;-61
2024/04/08 16:53:28;;;;;;;;;38.00;20.25;;;;;;;;10467213;28;42998;-60
2024/04/08 16:58:31;;;;;;;;;45.00;25.75;;;;;;;;10459272;28;42997;-60
2024/04/08 17:03:34;;;;;;;;;48.25;27.50;;;;;;;;10459858;28;43221;-61
2024/04/08 17:08:38;;;;;;;;;44.50;23.50;;;;;;;;10464756;28;43021;-60
2024/04/08 17:13:42;;;;;;;;;40.25;19.75;;;;;;;;10464883;28;43310;-60
2024/04/08 17:18:45;;;;;;;;;48.00;24.25;;;;;;;;10456845;28;44088;-60
2024/04/08 17:23:49;;;;;;;;;47.75;24.00;;;;;;;;10460606;28;43019;-60
2024/04/08 17:28:52;;;;;;;;;47.25;24.00;;;;;;;;10464019;28;43007;-61
2024/04/08 17:33:56;;;;;;;;;48.00;24.75;;;;;;;;10460257;28;43239;-61
2024/04/08 17:39:01;;;;;;;;;44.00;24.75;;;;;;;;10467869;28;43909;-61
2024/04/08 17:44:07;;;;;;;;;42.75;26.00;;;;;;;;10465554;28;43298;-61
2024/04/08 17:49:10;;;;;;;;;41.75;23.75;;;;;;;;10463786;28;43181;-61
2024/04/08 17:54:18;;;;;;;;;48.25;26.75;;;;;;;;10456096;28;43251;-61
2024/04/08 17:59:22;;;;;;;;;44.75;22.00;;;;;;;;10430079;28;43994;-61
2024/04/08 18:04:27;;;;;;;;;43.25;23.00;;;;;;;;10453266;28;43910;-61
2024/04/08 18:09:31;;;;;;;;;42.50;21.50;;;;;;;;10459116;28;43234;-61
2024/04/08 18:14:34;;;;;;;;;44.50;24.00;;;;;;;;10428886;28;42933;-61
2024/04/08 18:19:40;;;;;;;;;45.50;23.00;;;;;;;;10455334;28;42996;-61
2024/04/08 18:24:44;;;;;;;;;44.75;24.00;;;;;;;;10429533;28;43017;-61
2024/04/08 18:29:48;;;;;;;;;47.25;24.75;;;;;;;;10421197;28;43944;-61
2024/04/08 18:34:52;;;;;;;;;43.00;26.00;;;;;;;;10457859;28;43100;-61
2024/04/08 18:39:57;;;;;;;;;46.75;22.50;;;;;;;;10472181;28;43019;-61
2024/04/08 18:45:01;;;;;;;;;44.25;23.75;;;;;;;;10478273;28;42961;-61
2024/04/08 18:50:06;;;;;;;;;38.50;19.75;;;;;;;;10460439;28;43306;-61
2024/04/08 18:55:09;;;;;;;;;46.00;27.00;;;;;;;;10458046;28;44636;-61
2024/04/08 19:00:12;;;;;;;;;43.50;23.75;;;;;;;;10467105;28;42948;-61
2024/04/08 19:05:17;;;;;;;;;44.25;24.00;;;;;;;;10457431;28;43814;-61
2024/04/08 19:10:21;;;;;;;;;40.25;20.75;;;;;;;;10455715;28;43921;-61
2024/04/08 19:15:25;;;;;;;;;44.50;23.25;;;;;;;;10459542;28;43647;-62
2024/04/08 19:20:29;;;;;;;;;44.25;21.00;;;;;;;;10459446;28;43049;-61
2024/04/08 19:25:33;;;;;;;;;39.00;23.50;;;;;;;;10457626;28;43913;-61
2024/04/08 19:30:37;;;;;;;;;45.50;22.50;;;;;;;;10470492;28;43936;-61
2024/04/08 19:35:42;;;;;;;;;44.50;21.00;;;;;;;;10454753;28;43201;-62
2024/04/08 19:40:45;;;;;;;;;43.75;26.75;;;;;;;;10422296;28;43021;-62
2024/04/08 19:45:49;;;;;;;;;42.00;19.75;;;;;;;;10408589;28;44244;-61
2024/04/08 19:50:55;;;;;;;;;43.25;23.00;;;;;;;;10388446;28;49362;-61
2024/04/08 19:56:06;;;;;;;;;38.00;22.75;;;;;;;;10388094;28;44366;-61
2024/04/08 20:01:13;;;;;;;;;39.75;24.25;;;;;;;;10387800;28;43029;-61
2024/04/08 20:06:17;;;;;;;;;43.25;27.25;;;;;;;;10386597;28;43753;-61
2024/04/08 20:11:21;;;;;;;;;41.00;23.75;;;;;;;;10387490;28;44041;-61
2024/04/08 20:16:24;;;;;;;;;40.25;21.75;;;;;;;;10387286;28;42964;-61
2024/04/08 20:21:28;;;;;;;;;35.25;20.50;;;;;;;;10386811;28;43025;-61
2024/04/08 20:26:33;;;;;;;;;40.75;23.00;;;;;;;;10386508;28;43256;-61
2024/04/08 20:31:36;;;;;;;;;41.75;25.75;;;;;;;;10385931;28;43118;-61
2024/04/08 20:36:39;;;;;;;;;44.50;22.25;;;;;;;;10370703;28;44958;-61
2024/04/08 20:41:43;;;;;;;;;42.00;26.00;;;;;;;;10387680;28;43205;-61
2024/04/08 20:46:48;;;;;;;;;44.00;22.50;;;;;;;;10448014;28;42984;-61
2024/04/08 20:51:53;;;;;;;;;44.00;22.75;;;;;;;;10454931;28;44564;-61
2024/04/08 20:56:57;;;;;;;;;43.25;22.00;;;;;;;;10459711;27;43168;-61
2024/04/08 21:02:00;;;;;;;;;38.50;23.50;;;;;;;;10453832;28;43015;-60
2024/04/08 21:07:07;;;;;;;;;42.75;23.25;;;;;;;;10458616;28;43017;-61
2024/04/08 21:12:10;;;;;;;;;34.75;19.75;;;;;;;;10446737;28;43720;-61
2024/04/08 21:17:13;;;;;;;;;39.00;21.50;;;;;;;;10459523;28;43008;-61
2024/04/08 21:22:18;;;;;;;;;46.75;24.25;;;;;;;;10427630;28;43490;-61
2024/04/08 21:27:22;;;;;;;;;41.25;21.75;;;;;;;;10439365;28;42999;-60
2024/04/08 21:32:26;;;;;;;;;38.00;21.75;;;;;;;;10444079;28;43030;-61
2024/04/08 21:37:30;;;;;;;;;41.25;20.25;;;;;;;;10443154;28;43011;-61
2024/04/08 21:42:34;;;;;;;;;41.25;24.50;;;;;;;;10445015;28;43839;-61
2024/04/08 21:47:37;;;;;;;;;37.75;21.50;;;;;;;;10471796;28;43014;-60
2024/04/08 21:52:41;;;;;;;;;34.50;19.00;;;;;;;;10460726;28;43817;-60
2024/04/08 21:57:45;;;;;;;;;35.50;21.25;;;;;;;;10452616;28;43592;-61
2024/04/08 22:02:49;;;;;;;;;33.00;17.25;;;;;;;;10456609;27;42951;-61
2024/04/08 22:07:52;;;;;;;;;31.75;19.00;;;;;;;;10470270;28;43599;-62
2024/04/08 22:12:56;;;;;;;;;42.00;20.50;;;;;;;;10472355;27;43186;-61
2024/04/08 22:18:01;;;;;;;;;46.50;25.50;;;;;;;;10462500;28;43264;-60
2024/04/08 22:23:06;;;;;;;;;51.50;28.25;;;;;;;;10456825;28;42993;-61
2024/04/08 22:28:09;;;;;;;;;48.00;22.75;;;;;;;;10449467;28;44009;-60
2024/04/08 22:33:13;;;;;;;;;43.75;21.75;;;;;;;;10457087;28;43713;-60
2024/04/08 22:38:17;;;;;;;;;47.75;25.50;;;;;;;;10457152;28;43200;-60
2024/04/08 22:43:20;;;;;;;;;43.50;22.00;;;;;;;;10469989;28;43292;-61
2024/04/08 22:48:25;;;;;;;;;46.50;21.50;;;;;;;;10499079;28;43726;-61
2024/04/08 22:53:28;;;;;;;;;43.75;23.75;;;;;;;;10498443;28;43477;-61
2024/04/08 22:58:31;;;;;;;;;43.50;26.25;;;;;;;;10497954;28;43644;-61
2024/04/08 23:03:34;;;;;;;;;43.25;24.25;;;;;;;;10497525;28;43671;-61
2024/04/08 23:08:38;;;;;;;;;44.00;20.75;;;;;;;;10498885;28;43002;-61
2024/04/08 23:13:41;;;;;;;;;40.25;23.25;;;;;;;;10470285;28;43693;-61
2024/04/08 23:18:44;;;;;;;;;45.25;26.50;;;;;;;;10454738;28;43164;-61
2024/04/08 23:23:48;;;;;;;;;42.00;23.25;;;;;;;;10455428;28;44150;-61
2024/04/08 23:28:51;;;;;;;;;44.25;24.75;;;;;;;;10455264;28;43356;-61
2024/04/08 23:33:54;;;;;;;;;44.25;23.50;;;;;;;;10465861;28;44087;-61
2024/04/08 23:38:58;;;;;;;;;37.00;21.00;;;;;;;;10455231;28;42994;-61
2024/04/08 23:44:01;;;;;;;;;39.25;21.50;;;;;;;;10454877;28;43105;-61
2024/04/08 23:49:06;;;;;;;;;40.50;19.75;;;;;;;;10454304;28;43519;-61
2024/04/08 23:54:10;;;;;;;;;40.75;21.75;;;;;;;;10454940;28;42984;-62
2024/04/08 23:59:13;;;;;;;;;40.25;21.75;;;;;;;;10455233;28;42980;-61
